Time;durP1;ratioP1;P1;durP2;ratioP2;P2;SDS_P1;SDS_P2;PMS_P1;PMS_P2;Temp;Humidity;BMP_temperature;BMP_pressure;BME280_temperature;BME280_humidity;BME280_pressure;Samples;Min_cycle;Max_cycle;Signal;HPM_P1;HPM_P2
2022/08/26 00:00:11;;;;;;;1999.90;999.90;;;21.90;99.90;;;;;;5054350;28;20037;-60
2022/08/26 00:02:38;;;;;;;1999.90;999.90;;;21.90;99.90;;;;;;5054922;28;20060;-61
2022/08/26 00:05:04;;;;;;;1999.90;999.90;;;22.00;99.90;;;;;;5052615;28;20051;-60
2022/08/26 00:07:30;;;;;;;1999.90;999.90;;;21.90;99.90;;;;;;5054033;28;20045;-60
2022/08/26 00:09:56;;;;;;;1999.90;999.90;;;21.90;99.90;;;;;;5053371;28;20084;-60
2022/08/26 00:12:21;;;;;;;1999.90;999.90;;;21.90;99.90;;;;;;5053871;28;20041;-61
2022/08/26 00:14:47;;;;;;;1999.90;999.90;;;21.90;99.90;;;;;;5055106;28;20053;-61
2022/08/26 00:17:13;;;;;;;1999.90;999.90;;;21.90;99.90;;;;;;5051748;28;20059;-60
2022/08/26 00:19:39;;;;;;;1999.90;999.90;;;21.90;99.90;;;;;;5052918;28;20049;-61
2022/08/26 00:22:05;;;;;;;1999.90;999.90;;;21.90;99.90;;;;;;5054921;28;20411;-60
2022/08/26 00:24:31;;;;;;;1999.90;999.90;;;21.80;99.90;;;;;;5054918;28;20550;-61
2022/08/26 00:26:57;;;;;;;1999.90;999.90;;;21.80;99.90;;;;;;5053979;28;20132;-61
2022/08/26 00:29:23;;;;;;;1999.90;999.90;;;21.70;99.90;;;;;;5037352;28;20124;-61
2022/08/26 00:31:48;;;;;;;1999.90;999.90;;;21.70;99.90;;;;;;5054910;28;20045;-61
2022/08/26 00:34:15;;;;;;;1999.90;999.90;;;21.60;99.90;;;;;;5053582;28;20043;-60
2022/08/26 00:36:41;;;;;;;1999.90;999.90;;;21.60;99.90;;;;;;5055164;28;20109;-60
2022/08/26 00:39:08;;;;;;;1999.90;999.90;;;21.60;99.90;;;;;;5070266;28;20045;-61
2022/08/26 00:41:37;;;;;;;1999.90;999.90;;;21.60;99.90;;;;;;5054172;28;20049;-60
2022/08/26 00:44:03;;;;;;;1999.90;999.90;;;21.60;99.90;;;;;;5053686;28;20053;-61
2022/08/26 00:46:33;;;;;;;1999.90;999.90;;;21.60;99.90;;;;;;5054515;28;20056;-60
2022/08/26 00:49:04;;;;;;;1999.90;999.90;;;;;;;;;;5052506;28;20072;-61
2022/08/26 00:51:30;;;;;;;1999.90;999.90;;;;;;;;;;5054081;28;20697;-60
2022/08/26 00:53:58;;;;;;;1999.90;999.90;;;;;;;;;;5054490;28;20045;-61
2022/08/26 00:56:36;;;;;;;1999.90;999.90;;;;;;;;;;5053866;28;20051;-60
2022/08/26 00:59:06;;;;;;;1999.90;999.90;;;;;;;;;;5054739;28;20056;-60
2022/08/26 01:01:32;;;;;;;1999.90;999.90;;;;;;;;;;5051954;28;20053;-61
2022/08/26 01:03:59;;;;;;;1999.90;999.90;;;;;;;;;;5054283;28;20136;-60
2022/08/26 01:06:26;;;;;;;1999.90;999.90;;;;;;;;;;5054581;28;20450;-60
2022/08/26 01:08:52;;;;;;;1999.90;999.90;;;;;;;;;;5053608;28;20423;-60
2022/08/26 01:11:19;;;;;;;1999.90;999.90;;;;;;;;;;5085653;28;20056;-61
2022/08/26 01:13:46;;;;;;;1999.90;999.90;;;;;;;;;;5053659;28;20045;-61
2022/08/26 01:16:13;;;;;;;1999.90;999.90;;;;;;;;;;5053549;28;20403;-61
2022/08/26 01:18:41;;;;;;;1999.90;999.90;;;;;;;;;;5053751;28;20088;-61
2022/08/26 01:21:07;;;;;;;1999.90;999.90;;;;;;;;;;5053923;28;20061;-61
2022/08/26 01:23:36;;;;;;;1999.90;999.90;;;;;;;;;;5053567;28;20033;-61
2022/08/26 01:26:07;;;;;;;1999.90;999.90;;;;;;;;;;5053893;28;20087;-61
2022/08/26 01:28:34;;;;;;;1999.90;999.90;;;;;;;;;;5053524;28;20075;-61
2022/08/26 01:31:02;;;;;;;1999.90;999.90;;;;;;;;;;5053624;28;20056;-61
2022/08/26 01:33:34;;;;;;;1999.90;999.90;;;;;;;;;;5053388;28;20071;-60
2022/08/26 01:36:00;;;;;;;1999.90;999.90;;;;;;;;;;5051930;28;20045;-60
2022/08/26 01:38:26;;;;;;;1999.90;999.90;;;;;;;;;;5053092;28;20493;-61
2022/08/26 01:40:53;;;;;;;1999.90;999.90;;;;;;;;;;5053484;28;20430;-61
2022/08/26 01:43:21;;;;;;;1999.90;999.90;;;;;;;;;;5053334;28;20049;-61
2022/08/26 01:45:48;;;;;;;1999.90;999.90;;;;;;;;;;5050930;28;20057;-61
2022/08/26 01:48:17;;;;;;;1999.90;999.90;;;;;;;;;;5053157;28;20041;-61
2022/08/26 01:50:44;;;;;;;1999.90;999.90;;;;;;;;;;5052123;28;20575;-61
2022/08/26 01:53:12;;;;;;;1999.90;999.90;;;;;;;;;;5052140;28;20119;-60
2022/08/26 01:55:40;;;;;;;1999.90;999.90;;;;;;;;;;5052308;28;20136;-61
2022/08/26 01:58:09;;;;;;;1999.90;999.90;;;;;;;;;;5052671;28;20548;-61
2022/08/26 02:00:35;;;;;;;1999.90;999.90;;;;;;;;;;5051985;28;20059;-60
2022/08/26 02:03:15;;;;;;;1999.90;999.90;;;;;;;;;;5052100;28;20044;-60
2022/08/26 02:05:43;;;;;;;1999.90;999.90;;;;;;;;;;5049207;28;20065;-61
2022/08/26 02:08:10;;;;;;;1999.90;999.90;;;;;;;;;;5051258;28;20049;-60
2022/08/26 02:10:36;;;;;;;1999.90;999.90;;;;;;;;;;5052479;28;20180;-60
2022/08/26 02:13:02;;;;;;;1999.90;999.90;;;21.10;99.90;;;;;;5051932;28;20052;-60
2022/08/26 02:15:29;;;;;;;1999.90;999.90;;;21.10;99.90;;;;;;5053187;28;20052;-60
2022/08/26 02:17:55;;;;;;;1999.90;999.90;;;21.00;99.90;;;;;;5052757;28;20538;-60
2022/08/26 02:20:21;;;;;;;1999.90;999.90;;;21.00;99.90;;;;;;5052323;28;20055;-60
2022/08/26 02:22:47;;;;;;;1999.90;999.90;;;21.00;99.90;;;;;;5053059;28;20057;-61
2022/08/26 02:25:32;;;;;;;1999.90;999.90;;;21.10;99.90;;;;;;5052385;28;20087;-61
2022/08/26 02:27:59;;;;;;;1999.90;999.90;;;21.00;99.90;;;;;;5052489;28;20044;-60
2022/08/26 02:30:30;;;;;;;1999.90;999.90;;;21.00;99.90;;;;;;5052439;28;20052;-60
2022/08/26 02:33:02;;;;;;;1999.90;999.90;;;21.00;99.90;;;;;;5052107;28;20056;-60
2022/08/26 02:35:29;;;;;;;1999.90;999.90;;;21.00;99.90;;;;;;5052910;28;20080;-60
2022/08/26 02:37:55;;;;;;;1999.90;999.90;;;21.00;99.90;;;;;;5052322;28;20041;-60
2022/08/26 02:40:25;;;;;;;1999.90;999.90;;;21.00;99.90;;;;;;5052056;28;20119;-60
2022/08/26 02:42:51;;;;;;;1999.90;999.90;;;21.00;99.90;;;;;;5052904;28;20391;-60
2022/08/26 02:45:17;;;;;;;1999.90;999.90;;;21.00;99.90;;;;;;5052105;28;20526;-60
2022/08/26 02:47:44;;;;;;;1999.90;999.90;;;20.90;99.90;;;;;;5051864;28;20080;-60
2022/08/26 02:50:09;;;;;;;1999.90;999.90;;;20.90;99.90;;;;;;5052879;28;20521;-60
2022/08/26 02:52:36;;;;;;;1999.90;999.90;;;21.00;99.90;;;;;;5052260;28;20048;-60
2022/08/26 02:55:03;;;;;;;1999.90;999.90;;;20.90;99.90;;;;;;5050562;28;20127;-60
2022/08/26 02:57:29;;;;;;;1999.90;999.90;;;20.90;99.90;;;;;;5052498;28;20045;-60
2022/08/26 02:59:55;;;;;;;1999.90;999.90;;;21.00;99.90;;;;;;5052596;28;20128;-60
2022/08/26 03:02:21;;;;;;;1999.90;999.90;;;21.00;99.90;;;;;;5051392;28;20407;-60
2022/08/26 03:04:47;;;;;;;1999.90;999.90;;;21.00;99.90;;;;;;5052350;28;20041;-60
2022/08/26 03:07:13;;;;;;;1999.90;999.90;;;21.00;99.90;;;;;;5054278;28;20166;-60
2022/08/26 03:09:39;;;;;;;1999.90;999.90;;;21.10;99.90;;;;;;5055942;28;20048;-60
2022/08/26 03:12:05;;;;;;;1999.90;999.90;;;21.00;99.90;;;;;;5056532;28;20076;-60
2022/08/26 03:14:31;;;;;;;1999.90;999.90;;;21.00;99.90;;;;;;5055634;28;20136;-60
2022/08/26 03:16:57;;;;;;;1999.90;999.90;;;21.00;99.90;;;;;;5055800;28;20059;-60
2022/08/26 03:19:24;;;;;;;1999.90;999.90;;;21.10;99.90;;;;;;5056534;28;20388;-60
2022/08/26 03:21:51;;;;;;;1999.90;999.90;;;21.10;99.90;;;;;;5054351;28;20443;-60
2022/08/26 03:24:18;;;;;;;1999.90;999.90;;;21.10;99.90;;;;;;5055670;28;20045;-60
2022/08/26 03:26:45;;;;;;;1999.90;999.90;;;21.10;99.90;;;;;;5054989;28;20063;-60
2022/08/26 03:31:55;;;;;;;1999.90;999.90;;;21.10;99.90;;;;;;5055523;28;20153;-60
2022/08/26 03:34:22;;;;;;;1999.90;999.90;;;21.20;99.90;;;;;;5055843;28;20515;-60
2022/08/26 03:36:48;;;;;;;1999.90;999.90;;;21.20;99.90;;;;;;5037698;28;20060;-60
2022/08/26 03:39:14;;;;;;;1999.90;999.90;;;21.20;99.90;;;;;;5055606;28;20071;-60
2022/08/26 03:41:40;;;;;;;1999.90;999.90;;;21.20;99.90;;;;;;5055596;28;20538;-60
2022/08/26 03:44:08;;;;;;;1999.90;999.90;;;21.20;99.90;;;;;;5055514;28;20051;-60
2022/08/26 03:46:34;;;;;;;1999.90;999.90;;;21.20;99.90;;;;;;5054625;28;20085;-60
2022/08/26 03:49:01;;;;;;;1999.90;999.90;;;21.20;99.90;;;;;;5055316;28;20072;-60
2022/08/26 03:51:27;;;;;;;1999.90;999.90;;;21.20;99.90;;;;;;5055419;28;20064;-60
2022/08/26 03:53:53;;;;;;;1999.90;999.90;;;21.20;99.90;;;;;;5054095;28;20052;-60
2022/08/26 03:56:19;;;;;;;1999.90;999.90;;;21.20;99.90;;;;;;5055529;28;20123;-60
2022/08/26 03:58:45;;;;;;;1999.90;999.90;;;21.20;99.90;;;;;;5053715;28;20484;-60
2022/08/26 04:01:12;;;;;;;1999.90;999.90;;;21.20;99.90;;;;;;5053859;28;20091;-60
2022/08/26 04:03:57;;;;;;;1999.90;999.90;;;21.20;99.90;;;;;;5055564;28;20041;-60
2022/08/26 04:06:32;;;;;;;1999.90;999.90;;;21.20;99.90;;;;;;5038578;28;20095;-60
2022/08/26 04:09:00;;;;;;;1999.90;999.90;;;21.20;99.90;;;;;;5055371;28;20070;-60
2022/08/26 04:11:30;;;;;;;1999.90;999.90;;;21.20;99.90;;;;;;5054869;28;20103;-60
2022/08/26 04:13:58;;;;;;;1999.90;999.90;;;21.20;99.90;;;;;;5055071;28;20423;-60
2022/08/26 04:16:24;;;;;;;1999.90;999.90;;;21.20;99.90;;;;;;5054856;28;20063;-60
2022/08/26 04:18:51;;;;;;;1999.90;999.90;;;21.20;99.90;;;;;;5054730;28;20096;-60
2022/08/26 04:21:16;;;;;;;1999.90;999.90;;;21.20;99.90;;;;;;5053772;28;20076;-60
2022/08/26 04:23:42;;;;;;;1999.90;999.90;;;21.20;99.90;;;;;;5054490;28;20073;-61
2022/08/26 04:26:08;;;;;;;1999.90;999.90;;;21.20;99.90;;;;;;5054857;28;20041;-60
2022/08/26 04:28:34;;;;;;;1999.90;999.90;;;21.10;99.90;;;;;;5055278;28;20049;-60
2022/08/26 04:31:00;;;;;;;1999.90;999.90;;;21.10;99.90;;;;;;5054763;28;20403;-60
2022/08/26 04:33:25;;;;;;;1999.90;999.90;;;21.10;99.90;;;;;;5054264;28;20204;-60
2022/08/26 04:35:59;;;;;;;1999.90;999.90;;;21.10;99.90;;;;;;5055092;28;20079;-60
2022/08/26 04:38:25;;;;;;;1999.90;999.90;;;21.10;99.90;;;;;;5054639;28;20052;-60
2022/08/26 04:40:51;;;;;;;1999.90;999.90;;;21.10;99.90;;;;;;5054206;28;20053;-60
2022/08/26 04:43:16;;;;;;;1999.90;999.90;;;21.10;99.90;;;;;;5054634;28;20040;-60
2022/08/26 04:45:42;;;;;;;1999.90;999.90;;;21.10;99.90;;;;;;5054461;28;20084;-60
2022/08/26 04:48:08;;;;;;;1999.90;999.90;;;21.00;99.90;;;;;;5054062;28;20088;-61
2022/08/26 04:50:34;;;;;;;1999.90;999.90;;;21.10;99.90;;;;;;5054483;28;20045;-60
2022/08/26 04:53:00;;;;;;;1999.90;999.90;;;21.10;99.90;;;;;;5053984;28;20102;-60
2022/08/26 04:55:26;;;;;;;1999.90;999.90;;;21.10;99.90;;;;;;5054239;28;20083;-60
2022/08/26 04:57:52;;;;;;;1999.90;999.90;;;21.20;99.90;;;;;;5054139;28;20047;-60
2022/08/26 05:00:19;;;;;;;1999.90;999.90;;;21.20;99.90;;;;;;5050282;28;20092;-60
2022/08/26 05:02:45;;;;;;;1999.90;999.90;;;21.20;99.90;;;;;;5053793;28;20036;-60
2022/08/26 05:05:12;;;;;;;1999.90;999.90;;;21.10;99.90;;;;;;5054501;28;20506;-60
2022/08/26 05:07:38;;;;;;;1999.90;999.90;;;21.20;99.90;;;;;;5053552;28;20049;-60
2022/08/26 05:10:05;;;;;;;1999.90;999.90;;;21.20;99.90;;;;;;5054196;28;20049;-60
2022/08/26 05:12:31;;;;;;;1999.90;999.90;;;21.20;99.90;;;;;;5052752;28;20064;-61
2022/08/26 05:14:57;;;;;;;1999.90;999.90;;;21.20;99.90;;;;;;5053557;28;20053;-60
2022/08/26 05:17:22;;;;;;;1999.90;999.90;;;21.20;99.90;;;;;;5054046;28;20433;-60
2022/08/26 05:19:49;;;;;;;1999.90;999.90;;;21.20;99.90;;;;;;5053717;28;20162;-60
2022/08/26 05:22:16;;;;;;;1999.90;999.90;;;21.30;99.90;;;;;;5053481;28;20048;-60
2022/08/26 05:24:42;;;;;;;1999.90;999.90;;;21.30;99.90;;;;;;5054200;28;20049;-60
2022/08/26 05:27:08;;;;;;;1999.90;999.90;;;21.30;99.90;;;;;;5053591;28;20056;-60
2022/08/26 05:29:34;;;;;;;1999.90;999.90;;;21.30;99.90;;;;;;5052598;28;20551;-60
2022/08/26 05:32:00;;;;;;;1999.90;999.90;;;21.30;99.90;;;;;;5053754;28;20048;-60
2022/08/26 05:34:27;;;;;;;1999.90;999.90;;;21.30;99.90;;;;;;5053056;28;20569;-61
2022/08/26 05:36:52;;;;;;;1999.90;999.90;;;21.30;99.90;;;;;;5053159;28;20079;-60
2022/08/26 05:39:20;;;;;;;1999.90;999.90;;;21.40;99.90;;;;;;5052700;28;20170;-60
2022/08/26 05:41:45;;;;;;;1999.90;999.90;;;21.40;99.90;;;;;;5053675;28;20056;-60
2022/08/26 05:44:13;;;;;;;1999.90;999.90;;;21.50;99.90;;;;;;5052411;28;20041;-60
2022/08/26 05:46:40;;;;;;;1999.90;999.90;;;21.50;99.90;;;;;;5053731;28;20048;-60
2022/08/26 05:49:07;;;;;;;1999.90;999.90;;;21.40;99.90;;;;;;5053569;28;20047;-60
2022/08/26 05:51:33;;;;;;;1999.90;999.90;;;21.50;99.90;;;;;;5052742;28;20037;-60
2022/08/26 05:54:02;;;;;;;1999.90;999.90;;;21.50;99.90;;;;;;5053083;28;20119;-60
2022/08/26 05:56:27;;;;;;;1999.90;999.90;;;21.50;99.90;;;;;;5053254;28;20179;-60
2022/08/26 05:58:55;;;;;;;1999.90;999.90;;;21.50;99.90;;;;;;5052697;28;20095;-60
2022/08/26 06:01:24;;;;;;;1999.90;999.90;;;21.50;99.90;;;;;;5053036;28;20048;-60
2022/08/26 06:03:53;;;;;;;1999.90;999.90;;;21.50;99.90;;;;;;5052635;28;20048;-61
2022/08/26 06:06:25;;;;;;;1999.90;999.90;;;21.50;99.90;;;;;;5052799;28;20128;-60
2022/08/26 06:08:52;;;;;;;1999.90;999.90;;;21.50;99.90;;;;;;5051757;28;20127;-60
2022/08/26 06:11:24;;;;;;;1999.90;999.90;;;21.50;99.90;;;;;;5052457;28;20068;-60
2022/08/26 06:13:50;;;;;;;1999.90;999.90;;;21.50;99.90;;;;;;5054879;28;20076;-60
2022/08/26 06:16:19;;;;;;;1999.90;999.90;;;21.50;99.90;;;;;;5044254;28;20064;-60
2022/08/26 06:18:46;;;;;;;1999.90;999.90;;;21.50;99.90;;;;;;5041782;28;20046;-60
2022/08/26 06:21:14;;;;;;;1999.90;999.90;;;21.50;99.90;;;;;;5051946;28;20052;-60
2022/08/26 06:26:25;;;;;;;1999.90;999.90;;;21.50;99.90;;;;;;5052333;28;20041;-60
2022/08/26 06:28:51;;;;;;;1999.90;999.90;;;21.50;99.90;;;;;;5051090;28;20452;-60
2022/08/26 06:31:17;;;;;;;1999.90;999.90;;;21.50;99.90;;;;;;5052188;28;20036;-60
2022/08/26 06:33:43;;;;;;;1999.90;999.90;;;21.50;99.90;;;;;;5052046;28;20052;-60
2022/08/26 06:36:16;;;;;;;1999.90;999.90;;;21.50;99.90;;;;;;5052675;28;20049;-60
2022/08/26 06:38:41;;;;;;;1999.90;999.90;;;21.60;99.90;;;;;;5050862;28;20083;-60
2022/08/26 06:41:10;;;;;;;1999.90;999.90;;;21.70;99.90;;;;;;5049894;28;20080;-60
2022/08/26 06:43:37;;;;;;;1999.90;999.90;;;21.80;99.90;;;;;;5052260;28;20415;-60
2022/08/26 06:46:05;;;;;;;1999.90;999.90;;;21.90;99.90;;;;;;5051927;28;20072;-60
2022/08/26 06:48:31;;;;;;;1999.90;999.90;;;22.00;99.90;;;;;;5052905;28;20085;-60
2022/08/26 06:51:04;;;;;;;1999.90;999.90;;;22.10;99.90;;;;;;5052197;28;20088;-60
2022/08/26 06:53:30;;;;;;;1999.90;999.90;;;22.20;99.90;;;;;;5051940;28;20044;-60
2022/08/26 06:55:55;;;;;;;1999.90;999.90;;;22.30;99.90;;;;;;5052296;28;20060;-61
2022/08/26 06:58:21;;;;;;;1999.90;999.90;;;22.30;99.90;;;;;;5052214;28;20105;-61
2022/08/26 07:00:47;;;;;;;1999.90;999.90;;;22.20;99.90;;;;;;5051935;28;20179;-60
2022/08/26 07:03:13;;;;;;;1999.90;999.90;;;22.10;99.90;;;;;;5052391;28;20045;-60
2022/08/26 07:05:39;;;;;;;1999.90;999.90;;;21.90;99.90;;;;;;5052046;28;20048;-60
2022/08/26 07:08:05;;;;;;;1999.90;999.90;;;21.80;99.90;;;;;;5051648;28;20087;-60
2022/08/26 07:10:31;;;;;;;1999.90;999.90;;;21.80;99.90;;;;;;5051443;28;20045;-60
2022/08/26 07:12:56;;;;;;;1999.90;999.90;;;21.80;99.90;;;;;;5051405;28;20077;-61
2022/08/26 07:15:22;;;;;;;1999.90;999.90;;;21.90;99.90;;;;;;5052159;28;20053;-61
2022/08/26 07:17:48;;;;;;;1999.90;999.90;;;21.90;99.90;;;;;;5052500;28;20048;-60
2022/08/26 07:20:14;;;;;;;1999.90;999.90;;;22.00;99.90;;;;;;5052089;28;20446;-60
2022/08/26 07:22:39;;;;;;;1999.90;999.90;;;22.00;99.90;;;;;;5051286;28;20402;-60
2022/08/26 07:25:07;;;;;;;1999.90;999.90;;;22.10;99.90;;;;;;5052619;28;20128;-60
2022/08/26 07:27:34;;;;;;;1999.90;999.90;;;22.10;99.90;;;;;;5050321;28;20051;-60
2022/08/26 07:30:00;;;;;;;1999.90;999.90;;;22.20;99.90;;;;;;5051663;28;20098;-60
2022/08/26 07:32:26;;;;;;;1999.90;999.90;;;22.10;99.90;;;;;;5052383;28;20041;-60
2022/08/26 07:34:52;;;;;;;1999.90;999.90;;;22.10;99.90;;;;;;5051581;28;20052;-60
2022/08/26 07:37:18;;;;;;;1999.90;999.90;;;22.10;99.90;;;;;;5051804;28;20077;-60
2022/08/26 07:39:45;;;;;;;1999.90;999.90;;;22.10;99.90;;;;;;5051804;28;20095;-60
2022/08/26 07:42:13;;;;;;;1999.90;999.90;;;22.00;99.90;;;;;;5050865;28;20083;-61
2022/08/26 07:44:40;;;;;;;1999.90;999.90;;;22.10;99.90;;;;;;5051466;28;20491;-60
2022/08/26 07:47:07;;;;;;;1999.90;999.90;;;22.00;99.90;;;;;;5051990;28;20041;-60
2022/08/26 07:49:34;;;;;;;1999.90;999.90;;;21.80;99.90;;;;;;5031574;28;20064;-60
2022/08/26 07:52:00;;;;;;;1999.90;999.90;;;21.80;99.90;;;;;;5032220;28;20124;-60
2022/08/26 07:54:26;;;;;;;1999.90;999.90;;;21.90;99.90;;;;;;5055327;28;20481;-60
2022/08/26 07:56:51;;;;;;;1999.90;999.90;;;21.90;99.90;;;;;;5053531;28;20093;-61
2022/08/26 07:59:18;;;;;;;1999.90;999.90;;;22.00;99.90;;;;;;5055832;28;20049;-61
2022/08/26 08:01:44;;;;;;;1999.90;999.90;;;22.00;99.90;;;;;;5055611;28;20499;-61
2022/08/26 08:04:12;;;;;;;1999.90;999.90;;;22.00;99.90;;;;;;5054601;28;20055;-61
2022/08/26 08:06:38;;;;;;;1999.90;999.90;;;22.00;99.90;;;;;;5055400;28;20095;-61
2022/08/26 08:09:04;;;;;;;1999.90;999.90;;;22.00;99.90;;;;;;5055522;28;20053;-61
2022/08/26 08:11:31;;;;;;;1999.90;999.90;;;22.00;99.90;;;;;;5054721;28;20478;-60
2022/08/26 08:13:59;;;;;;;1999.90;999.90;;;22.10;99.90;;;;;;5054759;28;20128;-61
2022/08/26 08:16:27;;;;;;;1999.90;999.90;;;22.10;99.90;;;;;;5055275;28;20141;-61
2022/08/26 08:18:53;;;;;;;1999.90;999.90;;;22.10;99.90;;;;;;5054507;28;20457;-61
2022/08/26 08:21:20;;;;;;;1999.90;999.90;;;22.10;99.90;;;;;;5055673;28;20092;-61
2022/08/26 08:23:45;;;;;;;1999.90;999.90;;;22.10;99.90;;;;;;5054656;28;20048;-60
2022/08/26 08:26:11;;;;;;;1999.90;999.90;;;22.10;99.90;;;;;;5054534;28;20049;-60
2022/08/26 08:28:37;;;;;;;1999.90;999.90;;;22.00;99.90;;;;;;5055167;28;20479;-60
2022/08/26 08:31:04;;;;;;;1999.90;999.90;;;21.90;99.90;;;;;;5054864;28;20407;-60
2022/08/26 08:33:31;;;;;;;1999.90;999.90;;;22.00;99.90;;;;;;5053909;28;20514;-60
2022/08/26 08:35:58;;;;;;;1999.90;999.90;;;22.10;99.90;;;;;;5053426;28;20044;-61
2022/08/26 08:38:24;;;;;;;1999.90;999.90;;;22.10;99.90;;;;;;5055123;28;20045;-60
2022/08/26 08:40:50;;;;;;;1999.90;999.90;;;22.20;99.90;;;;;;5053955;28;20091;-61
2022/08/26 08:43:40;;;;;;;1999.90;999.90;;;22.30;99.90;;;;;;5054838;28;20404;-60
2022/08/26 08:46:11;;;;;;;1999.90;999.90;;;22.40;99.90;;;;;;5054124;28;20084;-60
2022/08/26 08:48:42;;;;;;;1999.90;999.90;;;22.50;99.90;;;;;;5054532;28;20044;-60
2022/08/26 08:51:17;;;;;;;1999.90;999.90;;;22.50;99.90;;;;;;5052792;28;20053;-60
2022/08/26 08:53:46;;;;;;;1999.90;999.90;;;22.40;99.90;;;;;;5053829;28;20052;-60
2022/08/26 08:56:31;;;;;;;1999.90;999.90;;;22.50;99.90;;;;;;5054102;28;20052;-60
2022/08/26 08:59:04;;;;;;;1999.90;999.90;;;22.50;99.90;;;;;;5052948;28;20049;-60
2022/08/26 09:01:57;;;;;;;1999.90;999.90;;;22.40;99.90;;;;;;5052586;28;20057;-61
2022/08/26 09:04:45;;;;;;;1999.90;999.90;;;22.40;99.90;;;;;;5051524;28;20052;-60
2022/08/26 09:07:17;;;;;;;1999.90;999.90;;;22.30;99.90;;;;;;5053645;28;20049;-60
2022/08/26 09:09:59;;;;;;;1999.90;999.90;;;22.30;99.90;;;;;;5054516;28;20068;-60
2022/08/26 09:12:29;;;;;;;1999.90;999.90;;;22.30;99.90;;;;;;5053716;28;20059;-61
2022/08/26 09:15:03;;;;;;;1999.90;999.90;;;22.30;99.90;;;;;;5053910;28;20425;-60
2022/08/26 09:17:35;;;;;;;1999.90;999.90;;;22.30;99.90;;;;;;5052560;28;20041;-60
2022/08/26 09:20:05;;;;;;;;;;;22.30;99.90;;;;;;5054594;28;20055;-60
2022/08/26 09:22:34;;;;;;;1999.90;999.90;;;22.40;99.90;;;;;;5085708;28;19924;-60
2022/08/26 09:25:03;;;;;;;1999.90;999.90;;;22.40;99.90;;;;;;5053281;28;20041;-60
2022/08/26 09:27:40;;;;;;;1999.90;999.90;;;22.40;99.90;;;;;;5052620;28;20060;-60
2022/08/26 09:30:07;;;;;;;1999.90;999.90;;;22.50;99.90;;;;;;5053680;28;20037;-60
2022/08/26 09:32:34;;;;;;;1999.90;999.90;;;22.60;99.90;;;;;;5053194;28;20438;-60
2022/08/26 09:35:03;;;;;;;1999.90;999.90;;;22.80;99.90;;;;;;5053074;28;20071;-60
2022/08/26 09:37:43;;;;;;;1999.90;999.90;;;23.00;99.90;;;;;;5054032;28;20467;-60
2022/08/26 09:40:12;;;;;;;1999.90;999.90;;;23.30;99.90;;;;;;5053218;28;20052;-60
2022/08/26 09:42:38;;;;;;;1999.90;999.90;;;23.50;99.90;;;;;;5052517;28;20048;-60
2022/08/26 09:45:09;;;;;;;1999.90;999.90;;;23.90;99.90;;;;;;5053394;28;20472;-60
2022/08/26 09:47:44;;;;;;;1999.90;999.90;;;24.20;99.90;;;;;;5050606;28;20049;-61
2022/08/26 09:50:25;;;;;;;1999.90;999.90;;;24.20;99.90;;;;;;5049692;28;20537;-61
2022/08/26 09:53:09;;;;;;;1999.90;999.90;;;24.00;99.90;;;;;;5049686;28;20110;-60
2022/08/26 09:55:36;;;;;;;1999.90;999.90;;;23.80;99.90;;;;;;5053327;28;20128;-61
2022/08/26 09:58:02;;;;;;;1999.90;999.90;;;23.70;99.90;;;;;;5053178;28;20402;-61
2022/08/26 10:00:39;;;;;;;1999.90;999.90;;;23.50;99.90;;;;;;5052983;28;20044;-60
2022/08/26 10:03:10;;;;;;;1999.90;999.90;;;23.30;99.90;;;;;;5052618;28;20049;-60
2022/08/26 10:05:45;;;;;;;1999.90;999.90;;;23.10;99.90;;;;;;5053433;28;20128;-60
2022/08/26 10:08:31;;;;;;;1999.90;999.90;;;22.80;99.90;;;;;;5053350;28;20049;-61
2022/08/26 10:11:00;;;;;;;1999.90;999.90;;;22.60;99.90;;;;;;5052173;28;20154;-60
2022/08/26 10:13:33;;;;;;;1999.90;999.90;;;22.40;99.90;;;;;;5052843;28;20045;-60
2022/08/26 10:16:17;;;;;;;1999.90;999.90;;;22.30;99.90;;;;;;5051809;28;20128;-60
2022/08/26 10:19:06;;;;;;;1999.90;999.90;;;22.30;99.90;;;;;;5050862;28;20514;-60
2022/08/26 10:21:40;;;;;;;1999.90;999.90;;;22.30;99.90;;;;;;5051394;28;20060;-60
2022/08/26 10:24:07;;;;;;;1999.90;999.90;;;22.30;99.90;;;;;;5052212;28;20036;-60
2022/08/26 10:26:56;;;;;;;1999.90;999.90;;;22.20;99.90;;;;;;5052784;28;20060;-61
2022/08/26 10:29:34;;;;;;;1999.90;999.90;;;22.20;99.90;;;;;;5052567;28;20487;-60
2022/08/26 10:32:06;;;;;;;1999.90;999.90;;;22.10;99.90;;;;;;5051925;28;20053;-61
2022/08/26 10:34:32;;;;;;;1999.90;999.90;;;22.10;99.90;;;;;;5053103;28;20041;-61
2022/08/26 10:37:07;;;;;;;1999.90;999.90;;;22.00;99.90;;;;;;5052324;28;20049;-60
2022/08/26 10:39:38;;;;;;;1999.90;999.90;;;21.90;99.90;;;;;;5052216;28;20045;-60
2022/08/26 10:42:14;;;;;;;1999.90;999.90;;;21.90;99.90;;;;;;5051398;28;20056;-61
2022/08/26 10:44:42;;;;;;;1999.90;999.90;;;21.80;99.90;;;;;;5050862;28;20051;-61
2022/08/26 10:47:15;;;;;;;1999.90;999.90;;;21.80;99.90;;;;;;5050834;28;20398;-60
2022/08/26 10:49:43;;;;;;;1999.90;999.90;;;21.80;99.90;;;;;;5052463;28;20045;-60
2022/08/26 10:52:27;;;;;;;1999.90;999.90;;;21.70;99.90;;;;;;5052508;28;20102;-60
2022/08/26 10:54:57;;;;;;;1999.90;999.90;;;21.70;99.90;;;;;;5050824;28;20045;-61
2022/08/26 10:57:45;;;;;;;1999.90;999.90;;;21.60;99.90;;;;;;5052601;28;20139;-61
2022/08/26 11:03:37;;;;;;;1999.90;999.90;;;21.60;99.90;;;;;;5051850;28;20080;-61
2022/08/26 11:06:16;;;;;;;1999.90;999.90;;;21.60;99.90;;;;;;5052900;28;20049;-60
2022/08/26 11:08:51;;;;;;;1999.90;999.90;;;21.60;99.90;;;;;;5052250;28;20049;-61
2022/08/26 11:11:41;;;;;;;1999.90;999.90;;;21.70;99.90;;;;;;5051915;28;20049;-60
2022/08/26 11:14:16;;;;;;;1999.90;999.90;;;21.70;99.90;;;;;;5051568;28;20069;-61
2022/08/26 11:16:50;;;;;;;1999.90;999.90;;;21.70;99.90;;;;;;5052233;28;20055;-61
2022/08/26 11:19:50;;;;;;;1999.90;999.90;;;21.80;99.90;;;;;;5052302;28;20503;-61
2022/08/26 11:22:27;;;;;;;1999.90;999.90;;;21.90;99.90;;;;;;5031559;28;20049;-60
2022/08/26 11:24:53;;;;;;;1999.90;999.90;;;21.90;99.90;;;;;;5045762;28;20410;-61
2022/08/26 11:27:23;;;;;;;1999.90;999.90;;;22.00;99.90;;;;;;5052754;28;20048;-61
2022/08/26 11:29:58;;;;;;;1999.90;999.90;;;22.00;99.90;;;;;;5056196;28;20123;-60
2022/08/26 11:32:48;;;;;;;1999.90;999.90;;;22.10;99.90;;;;;;5055721;28;20114;-60
2022/08/26 11:35:17;;;;;;;1999.90;999.90;;;22.20;99.90;;;;;;5035976;28;20053;-61
2022/08/26 11:37:56;;;;;;;1999.90;999.90;;;22.30;99.90;;;;;;5040843;28;20047;-60
2022/08/26 11:40:27;;;;;;;1999.90;999.90;;;22.30;99.90;;;;;;5055618;28;20442;-60
2022/08/26 11:42:56;;;;;;;1999.90;999.90;;;22.40;99.90;;;;;;5053958;28;20403;-60
2022/08/26 11:45:33;;;;;;;1999.90;999.90;;;22.40;99.90;;;;;;5055795;28;20190;-61
2022/08/26 11:48:19;;;;;;;1999.90;999.90;;;22.40;99.90;;;;;;5055594;28;20084;-60
2022/08/26 11:50:54;;;;;;;1999.90;999.90;;;22.40;99.90;;;;;;5055486;28;20048;-61
2022/08/26 11:53:21;;;;;;;1999.90;999.90;;;22.40;99.90;;;;;;5055088;28;20041;-61
2022/08/26 11:55:48;;;;;;;1999.90;999.90;;;22.30;99.90;;;;;;5055202;28;20049;-60
2022/08/26 11:58:15;;;;;;;1999.90;999.90;;;22.30;99.90;;;;;;5054313;28;20588;-61
2022/08/26 12:00:45;;;;;;;1999.90;999.90;;;22.20;99.90;;;;;;5055284;28;20044;-61
2022/08/26 12:03:17;;;;;;;1999.90;999.90;;;22.20;99.90;;;;;;5054906;28;20522;-61
2022/08/26 12:05:45;;;;;;;1999.90;999.90;;;22.10;99.90;;;;;;5055592;28;20048;-61
2022/08/26 12:08:17;;;;;;;1999.90;999.90;;;22.10;99.90;;;;;;5053795;28;20044;-60
2022/08/26 12:10:44;;;;;;;1999.90;999.90;;;22.10;99.90;;;;;;5053686;28;20045;-60
2022/08/26 12:13:22;;;;;;;1999.90;999.90;;;22.00;99.90;;;;;;5054718;28;20475;-60
2022/08/26 12:15:57;;;;;;;1999.90;999.90;;;22.00;99.90;;;;;;5055225;28;20057;-60
2022/08/26 12:18:28;;;;;;;1999.90;999.90;;;21.90;99.90;;;;;;5054591;28;20116;-60
2022/08/26 12:20:58;;;;;;;1999.90;999.90;;;21.90;99.90;;;;;;5055293;28;20049;-61
2022/08/26 12:23:24;;;;;;;1999.90;999.90;;;21.90;99.90;;;;;;5054650;28;20049;-61
2022/08/26 12:25:53;;;;;;;1999.90;999.90;;;22.00;99.90;;;;;;5053351;28;20107;-61
2022/08/26 12:28:20;;;;;;;1999.90;999.90;;;22.20;99.90;;;;;;5053594;28;20518;-60